KPCD/PCD METAR and TAF weather

Enter ICAO airport designator
Station Type Date Time Source
KPCD METAR 2019/02/21 15:55 UTC NOAA

KPCD 211555Z AUTO 00000KT 10SM CLR 03/00 A3026 RMK AO2 T00331004


Station Type Date Time Source
KPCD Decoded METAR 2019/02/21 15:55 UTC NOAA

Station name not available
Feb 21, 2019 - 10:55 AM EST / 2019.02.21 1555 UTC
Wind: Calm:0
Visibility: 10 mile(s):0
Sky conditions: clear
Temperature: 37.9 F (3.3 C)
Dew Point: 31.3 F (-0.4 C)
Relative Humidity: 76%
Pressure (altimeter): 30.26 in. Hg (1024 hPa)
ob: KPCD 211555Z AUTO 00000KT 10SM CLR 03/00 A3026 RMK AO2 T00331004
cycle: 16

Station Type Date Time Source
KPCD TAF UTC NOAA

Error!


Example: see airport list